sensor_id;sensor_type;location;lat;lon;timestamp;P1;durP1;ratioP1;P2;durP2;ratioP2
62863;SDS011;48954;59.950;11.014;2022-10-31T00:01:14;9.80;;;5.30;;
62863;SDS011;48954;59.950;11.014;2022-10-31T00:03:45;13.80;;;7.20;;
62863;SDS011;48954;59.950;11.014;2022-10-31T00:06:12;10.00;;;5.30;;
62863;SDS011;48954;59.950;11.014;2022-10-31T00:08:39;16.60;;;6.80;;
62863;SDS011;48954;59.950;11.014;2022-10-31T00:11:09;13.40;;;6.50;;
62863;SDS011;48954;59.950;11.014;2022-10-31T00:13:36;13.30;;;6.50;;
62863;SDS011;48954;59.950;11.014;2022-10-31T00:16:02;12.70;;;6.40;;
62863;SDS011;48954;59.950;11.014;2022-10-31T00:18:28;11.90;;;5.60;;
62863;SDS011;48954;59.950;11.014;2022-10-31T00:21:00;13.80;;;5.60;;
62863;SDS011;48954;59.950;11.014;2022-10-31T00:23:31;13.90;;;5.30;;
62863;SDS011;48954;59.950;11.014;2022-10-31T00:26:01;14.60;;;5.90;;
62863;SDS011;48954;59.950;11.014;2022-10-31T00:28:29;17.30;;;7.10;;
62863;SDS011;48954;59.950;11.014;2022-10-31T00:31:02;20.70;;;6.80;;
62863;SDS011;48954;59.950;11.014;2022-10-31T00:33:29;18.90;;;5.30;;
62863;SDS011;48954;59.950;11.014;2022-10-31T00:35:56;24.70;;;6.00;;
62863;SDS011;48954;59.950;11.014;2022-10-31T00:38:23;15.70;;;5.70;;
62863;SDS011;48954;59.950;11.014;2022-10-31T00:40:49;11.30;;;4.90;;
62863;SDS011;48954;59.950;11.014;2022-10-31T00:43:15;17.80;;;6.80;;
62863;SDS011;48954;59.950;11.014;2022-10-31T00:45:41;16.40;;;6.20;;
62863;SDS011;48954;59.950;11.014;2022-10-31T00:48:07;27.80;;;7.10;;
62863;SDS011;48954;59.950;11.014;2022-10-31T00:50:34;16.00;;;6.80;;
62863;SDS011;48954;59.950;11.014;2022-10-31T00:53:00;10.50;;;5.90;;
62863;SDS011;48954;59.950;11.014;2022-10-31T00:55:26;10.10;;;5.00;;
62863;SDS011;48954;59.950;11.014;2022-10-31T00:57:52;12.30;;;6.10;;
62863;SDS011;48954;59.950;11.014;2022-10-31T01:00:18;9.70;;;5.30;;
62863;SDS011;48954;59.950;11.014;2022-10-31T01:02:44;12.00;;;4.80;;
62863;SDS011;48954;59.950;11.014;2022-10-31T01:05:10;10.50;;;5.60;;
62863;SDS011;48954;59.950;11.014;2022-10-31T01:07:36;13.80;;;5.90;;
62863;SDS011;48954;59.950;11.014;2022-10-31T01:10:03;11.70;;;6.50;;
62863;SDS011;48954;59.950;11.014;2022-10-31T01:12:30;10.40;;;5.60;;
62863;SDS011;48954;59.950;11.014;2022-10-31T01:15:02;13.80;;;5.90;;
62863;SDS011;48954;59.950;11.014;2022-10-31T01:17:29;9.80;;;5.90;;
62863;SDS011;48954;59.950;11.014;2022-10-31T01:19:55;10.70;;;4.90;;
62863;SDS011;48954;59.950;11.014;2022-10-31T01:22:21;11.40;;;5.00;;
62863;SDS011;48954;59.950;11.014;2022-10-31T01:24:47;17.20;;;6.50;;
62863;SDS011;48954;59.950;11.014;2022-10-31T01:27:13;13.00;;;6.00;;
62863;SDS011;48954;59.950;11.014;2022-10-31T01:29:39;11.20;;;5.70;;
62863;SDS011;48954;59.950;11.014;2022-10-31T01:32:04;17.40;;;6.90;;
62863;SDS011;48954;59.950;11.014;2022-10-31T01:34:30;15.10;;;6.00;;
62863;SDS011;48954;59.950;11.014;2022-10-31T01:36:56;11.70;;;5.90;;
62863;SDS011;48954;59.950;11.014;2022-10-31T01:39:25;12.30;;;5.20;;
62863;SDS011;48954;59.950;11.014;2022-10-31T01:41:52;13.60;;;6.00;;
62863;SDS011;48954;59.950;11.014;2022-10-31T01:52:24;12.60;;;5.50;;
62863;SDS011;48954;59.950;11.014;2022-10-31T01:54:51;14.30;;;6.20;;
62863;SDS011;48954;59.950;11.014;2022-10-31T01:57:25;9.40;;;5.30;;
62863;SDS011;48954;59.950;11.014;2022-10-31T01:59:52;11.90;;;6.00;;
62863;SDS011;48954;59.950;11.014;2022-10-31T02:02:22;12.20;;;5.70;;
62863;SDS011;48954;59.950;11.014;2022-10-31T02:04:54;11.00;;;5.30;;
62863;SDS011;48954;59.950;11.014;2022-10-31T02:07:30;11.50;;;5.60;;
62863;SDS011;48954;59.950;11.014;2022-10-31T02:10:02;10.80;;;5.90;;
62863;SDS011;48954;59.950;11.014;2022-10-31T02:12:29;11.10;;;6.00;;
62863;SDS011;48954;59.950;11.014;2022-10-31T02:14:57;13.00;;;6.10;;
62863;SDS011;48954;59.950;11.014;2022-10-31T02:17:24;14.50;;;7.50;;
62863;SDS011;48954;59.950;11.014;2022-10-31T02:22:27;11.50;;;6.90;;
62863;SDS011;48954;59.950;11.014;2022-10-31T02:33:49;12.50;;;5.60;;
62863;SDS011;48954;59.950;11.014;2022-10-31T02:36:23;15.40;;;6.90;;
62863;SDS011;48954;59.950;11.014;2022-10-31T02:42:03;14.40;;;7.20;;
62863;SDS011;48954;59.950;11.014;2022-10-31T02:44:58;10.90;;;5.40;;
62863;SDS011;48954;59.950;11.014;2022-10-31T02:47:39;13.60;;;6.20;;
62863;SDS011;48954;59.950;11.014;2022-10-31T02:52:41;14.60;;;6.20;;
62863;SDS011;48954;59.950;11.014;2022-10-31T02:55:11;20.90;;;7.40;;
62863;SDS011;48954;59.950;11.014;2022-10-31T02:57:59;14.40;;;6.20;;
62863;SDS011;48954;59.950;11.014;2022-10-31T03:00:30;15.90;;;6.60;;
62863;SDS011;48954;59.950;11.014;2022-10-31T03:03:19;14.40;;;6.70;;
62863;SDS011;48954;59.950;11.014;2022-10-31T03:06:00;18.70;;;6.90;;
62863;SDS011;48954;59.950;11.014;2022-10-31T03:08:41;13.90;;;6.10;;
62863;SDS011;48954;59.950;11.014;2022-10-31T03:11:09;17.30;;;6.60;;
62863;SDS011;48954;59.950;11.014;2022-10-31T03:13:38;12.50;;;4.80;;
62863;SDS011;48954;59.950;11.014;2022-10-31T03:16:09;14.80;;;5.30;;
62863;SDS011;48954;59.950;11.014;2022-10-31T03:18:43;16.20;;;5.70;;
62863;SDS011;48954;59.950;11.014;2022-10-31T03:21:58;12.60;;;5.30;;
62863;SDS011;48954;59.950;11.014;2022-10-31T03:24:21;16.00;;;5.90;;
62863;SDS011;48954;59.950;11.014;2022-10-31T03:26:51;10.80;;;5.10;;
62863;SDS011;48954;59.950;11.014;2022-10-31T03:29:22;17.20;;;6.10;;
62863;SDS011;48954;59.950;11.014;2022-10-31T03:34:48;9.80;;;4.90;;
62863;SDS011;48954;59.950;11.014;2022-10-31T03:37:19;12.70;;;4.80;;
62863;SDS011;48954;59.950;11.014;2022-10-31T03:39:48;14.60;;;6.30;;
62863;SDS011;48954;59.950;11.014;2022-10-31T03:42:18;13.90;;;5.90;;
62863;SDS011;48954;59.950;11.014;2022-10-31T03:44:51;21.20;;;6.50;;
62863;SDS011;48954;59.950;11.014;2022-10-31T03:47:25;16.70;;;6.40;;
62863;SDS011;48954;59.950;11.014;2022-10-31T03:49:52;17.80;;;6.60;;
62863;SDS011;48954;59.950;11.014;2022-10-31T03:52:39;15.30;;;6.90;;
62863;SDS011;48954;59.950;11.014;2022-10-31T03:55:13;12.30;;;6.40;;
62863;SDS011;48954;59.950;11.014;2022-10-31T03:57:44;12.80;;;5.70;;
62863;SDS011;48954;59.950;11.014;2022-10-31T04:00:16;16.00;;;6.30;;
62863;SDS011;48954;59.950;11.014;2022-10-31T04:03:27;13.70;;;5.60;;
62863;SDS011;48954;59.950;11.014;2022-10-31T04:05:38;13.20;;;5.70;;
62863;SDS011;48954;59.950;11.014;2022-10-31T04:08:07;11.70;;;5.90;;
62863;SDS011;48954;59.950;11.014;2022-10-31T04:10:37;14.70;;;6.60;;
62863;SDS011;48954;59.950;11.014;2022-10-31T04:13:07;15.60;;;7.70;;
62863;SDS011;48954;59.950;11.014;2022-10-31T04:15:37;14.80;;;6.60;;
62863;SDS011;48954;59.950;11.014;2022-10-31T04:18:05;15.00;;;7.20;;
62863;SDS011;48954;59.950;11.014;2022-10-31T04:20:34;13.50;;;6.90;;
62863;SDS011;48954;59.950;11.014;2022-10-31T04:23:02;13.50;;;7.40;;
62863;SDS011;48954;59.950;11.014;2022-10-31T04:25:31;19.10;;;9.50;;
62863;SDS011;48954;59.950;11.014;2022-10-31T04:27:56;19.60;;;9.50;;
62863;SDS011;48954;59.950;11.014;2022-10-31T04:30:23;24.40;;;10.70;;
62863;SDS011;48954;59.950;11.014;2022-10-31T04:32:50;20.40;;;9.20;;
62863;SDS011;48954;59.950;11.014;2022-10-31T04:35:16;18.80;;;9.80;;
62863;SDS011;48954;59.950;11.014;2022-10-31T04:37:43;18.00;;;9.30;;
62863;SDS011;48954;59.950;11.014;2022-10-31T04:40:10;22.50;;;10.10;;
62863;SDS011;48954;59.950;11.014;2022-10-31T04:42:36;20.60;;;9.30;;
62863;SDS011;48954;59.950;11.014;2022-10-31T04:45:02;14.90;;;7.80;;
62863;SDS011;48954;59.950;11.014;2022-10-31T04:47:30;16.80;;;8.20;;
62863;SDS011;48954;59.950;11.014;2022-10-31T04:49:57;45.90;;;8.00;;
62863;SDS011;48954;59.950;11.014;2022-10-31T04:52:22;86.10;;;12.20;;
62863;SDS011;48954;59.950;11.014;2022-10-31T04:54:49;30.60;;;8.30;;
62863;SDS011;48954;59.950;11.014;2022-10-31T04:57:15;22.70;;;7.40;;
62863;SDS011;48954;59.950;11.014;2022-10-31T04:59:40;30.80;;;7.10;;
62863;SDS011;48954;59.950;11.014;2022-10-31T05:02:06;23.30;;;7.60;;
62863;SDS011;48954;59.950;11.014;2022-10-31T05:04:32;27.70;;;8.60;;
62863;SDS011;48954;59.950;11.014;2022-10-31T05:06:58;18.80;;;7.70;;
62863;SDS011;48954;59.950;11.014;2022-10-31T05:09:24;15.60;;;7.40;;
62863;SDS011;48954;59.950;11.014;2022-10-31T05:11:50;14.90;;;7.80;;
62863;SDS011;48954;59.950;11.014;2022-10-31T05:14:16;18.90;;;8.40;;
62863;SDS011;48954;59.950;11.014;2022-10-31T05:16:42;19.60;;;8.20;;
62863;SDS011;48954;59.950;11.014;2022-10-31T05:19:08;23.80;;;10.10;;
62863;SDS011;48954;59.950;11.014;2022-10-31T05:21:33;24.60;;;10.00;;
62863;SDS011;48954;59.950;11.014;2022-10-31T05:23:59;23.50;;;10.00;;
62863;SDS011;48954;59.950;11.014;2022-10-31T05:26:25;20.90;;;9.00;;
62863;SDS011;48954;59.950;11.014;2022-10-31T05:28:51;21.80;;;9.80;;
62863;SDS011;48954;59.950;11.014;2022-10-31T05:31:17;20.20;;;9.00;;
62863;SDS011;48954;59.950;11.014;2022-10-31T05:33:43;20.10;;;10.00;;
62863;SDS011;48954;59.950;11.014;2022-10-31T05:36:09;21.40;;;9.00;;
62863;SDS011;48954;59.950;11.014;2022-10-31T05:38:35;19.00;;;9.70;;
62863;SDS011;48954;59.950;11.014;2022-10-31T05:41:02;16.80;;;8.80;;
62863;SDS011;48954;59.950;11.014;2022-10-31T05:43:28;18.00;;;9.40;;
62863;SDS011;48954;59.950;11.014;2022-10-31T05:45:54;22.10;;;9.60;;
62863;SDS011;48954;59.950;11.014;2022-10-31T05:48:21;18.20;;;8.80;;
62863;SDS011;48954;59.950;11.014;2022-10-31T05:50:48;18.90;;;8.50;;
62863;SDS011;48954;59.950;11.014;2022-10-31T05:53:15;20.20;;;8.40;;
62863;SDS011;48954;59.950;11.014;2022-10-31T05:55:42;17.60;;;8.00;;
62863;SDS011;48954;59.950;11.014;2022-10-31T05:58:09;17.80;;;8.50;;
62863;SDS011;48954;59.950;11.014;2022-10-31T06:00:36;17.40;;;8.60;;
62863;SDS011;48954;59.950;11.014;2022-10-31T06:03:08;18.30;;;9.60;;
62863;SDS011;48954;59.950;11.014;2022-10-31T06:05:39;21.60;;;9.20;;
62863;SDS011;48954;59.950;11.014;2022-10-31T06:08:05;17.40;;;8.90;;
62863;SDS011;48954;59.950;11.014;2022-10-31T06:10:32;19.40;;;8.50;;
62863;SDS011;48954;59.950;11.014;2022-10-31T06:13:07;17.20;;;8.00;;
62863;SDS011;48954;59.950;11.014;2022-10-31T06:15:33;17.70;;;8.40;;
62863;SDS011;48954;59.950;11.014;2022-10-31T06:18:01;14.10;;;7.00;;
62863;SDS011;48954;59.950;11.014;2022-10-31T06:20:29;14.60;;;7.30;;
62863;SDS011;48954;59.950;11.014;2022-10-31T06:22:57;16.00;;;7.70;;
62863;SDS011;48954;59.950;11.014;2022-10-31T06:25:23;15.50;;;6.40;;
62863;SDS011;48954;59.950;11.014;2022-10-31T06:27:50;16.30;;;7.30;;
62863;SDS011;48954;59.950;11.014;2022-10-31T06:30:17;15.40;;;6.80;;
62863;SDS011;48954;59.950;11.014;2022-10-31T06:32:43;17.20;;;7.20;;
62863;SDS011;48954;59.950;11.014;2022-10-31T06:35:09;15.20;;;7.10;;
62863;SDS011;48954;59.950;11.014;2022-10-31T06:37:35;18.00;;;7.40;;
62863;SDS011;48954;59.950;11.014;2022-10-31T06:40:06;18.30;;;7.80;;
62863;SDS011;48954;59.950;11.014;2022-10-31T06:42:32;14.80;;;8.10;;
62863;SDS011;48954;59.950;11.014;2022-10-31T06:44:58;14.40;;;7.40;;
62863;SDS011;48954;59.950;11.014;2022-10-31T06:47:24;16.80;;;7.60;;
62863;SDS011;48954;59.950;11.014;2022-10-31T06:49:50;21.50;;;8.20;;
62863;SDS011;48954;59.950;11.014;2022-10-31T06:52:16;13.00;;;7.10;;
62863;SDS011;48954;59.950;11.014;2022-10-31T06:54:42;13.00;;;6.80;;
62863;SDS011;48954;59.950;11.014;2022-10-31T06:57:08;17.90;;;6.90;;
62863;SDS011;48954;59.950;11.014;2022-10-31T06:59:34;12.90;;;6.30;;
62863;SDS011;48954;59.950;11.014;2022-10-31T07:02:00;12.60;;;6.40;;
62863;SDS011;48954;59.950;11.014;2022-10-31T07:04:26;13.90;;;7.10;;
62863;SDS011;48954;59.950;11.014;2022-10-31T07:06:51;10.20;;;5.60;;
62863;SDS011;48954;59.950;11.014;2022-10-31T07:09:18;12.10;;;5.90;;
62863;SDS011;48954;59.950;11.014;2022-10-31T07:11:44;11.50;;;5.50;;
62863;SDS011;48954;59.950;11.014;2022-10-31T07:14:10;10.50;;;5.90;;
62863;SDS011;48954;59.950;11.014;2022-10-31T07:16:36;14.70;;;5.80;;
62863;SDS011;48954;59.950;11.014;2022-10-31T07:19:02;11.50;;;6.70;;
62863;SDS011;48954;59.950;11.014;2022-10-31T07:21:28;11.10;;;5.60;;
62863;SDS011;48954;59.950;11.014;2022-10-31T07:23:54;9.30;;;5.20;;
62863;SDS011;48954;59.950;11.014;2022-10-31T07:26:22;12.40;;;5.80;;
62863;SDS011;48954;59.950;11.014;2022-10-31T07:28:48;12.60;;;5.70;;
62863;SDS011;48954;59.950;11.014;2022-10-31T07:31:14;13.20;;;6.30;;
62863;SDS011;48954;59.950;11.014;2022-10-31T07:33:42;13.40;;;5.80;;
62863;SDS011;48954;59.950;11.014;2022-10-31T07:36:08;12.30;;;5.20;;
62863;SDS011;48954;59.950;11.014;2022-10-31T07:38:38;12.00;;;5.60;;
62863;SDS011;48954;59.950;11.014;2022-10-31T07:41:05;14.70;;;6.20;;
62863;SDS011;48954;59.950;11.014;2022-10-31T07:43:31;11.00;;;5.00;;
62863;SDS011;48954;59.950;11.014;2022-10-31T07:45:56;11.30;;;5.70;;
62863;SDS011;48954;59.950;11.014;2022-10-31T07:48:49;15.90;;;6.30;;
62863;SDS011;48954;59.950;11.014;2022-10-31T07:51:23;15.10;;;6.20;;
62863;SDS011;48954;59.950;11.014;2022-10-31T07:53:50;18.00;;;6.60;;
62863;SDS011;48954;59.950;11.014;2022-10-31T07:56:15;12.40;;;5.80;;
62863;SDS011;48954;59.950;11.014;2022-10-31T07:58:41;11.70;;;5.90;;
62863;SDS011;48954;59.950;11.014;2022-10-31T08:01:08;11.80;;;6.20;;
62863;SDS011;48954;59.950;11.014;2022-10-31T08:03:37;13.40;;;6.30;;
62863;SDS011;48954;59.950;11.014;2022-10-31T08:06:04;15.00;;;6.40;;
62863;SDS011;48954;59.950;11.014;2022-10-31T08:08:30;12.00;;;6.10;;
62863;SDS011;48954;59.950;11.014;2022-10-31T08:10:57;12.70;;;5.70;;
62863;SDS011;48954;59.950;11.014;2022-10-31T08:13:23;10.90;;;5.10;;
62863;SDS011;48954;59.950;11.014;2022-10-31T08:15:49;13.50;;;6.40;;
62863;SDS011;48954;59.950;11.014;2022-10-31T08:18:15;10.80;;;5.60;;
62863;SDS011;48954;59.950;11.014;2022-10-31T08:20:42;11.40;;;5.40;;
62863;SDS011;48954;59.950;11.014;2022-10-31T08:23:09;14.40;;;5.50;;
62863;SDS011;48954;59.950;11.014;2022-10-31T08:25:36;10.30;;;5.30;;
62863;SDS011;48954;59.950;11.014;2022-10-31T08:28:03;12.10;;;5.10;;
62863;SDS011;48954;59.950;11.014;2022-10-31T08:30:32;10.80;;;5.00;;
62863;SDS011;48954;59.950;11.014;2022-10-31T08:35:49;9.70;;;4.50;;
62863;SDS011;48954;59.950;11.014;2022-10-31T08:38:16;12.40;;;4.30;;
62863;SDS011;48954;59.950;11.014;2022-10-31T08:40:42;11.80;;;4.50;;
62863;SDS011;48954;59.950;11.014;2022-10-31T08:43:12;10.30;;;5.10;;
62863;SDS011;48954;59.950;11.014;2022-10-31T08:45:39;12.10;;;5.50;;
62863;SDS011;48954;59.950;11.014;2022-10-31T08:48:11;14.10;;;5.70;;
62863;SDS011;48954;59.950;11.014;2022-10-31T08:50:43;11.70;;;5.00;;
62863;SDS011;48954;59.950;11.014;2022-10-31T08:53:15;13.00;;;5.00;;
62863;SDS011;48954;59.950;11.014;2022-10-31T08:55:59;12.00;;;4.90;;
62863;SDS011;48954;59.950;11.014;2022-10-31T08:58:27;12.00;;;5.40;;
62863;SDS011;48954;59.950;11.014;2022-10-31T09:00:54;10.40;;;5.30;;
62863;SDS011;48954;59.950;11.014;2022-10-31T09:03:25;13.40;;;5.10;;
62863;SDS011;48954;59.950;11.014;2022-10-31T09:05:57;13.00;;;5.30;;
62863;SDS011;48954;59.950;11.014;2022-10-31T09:08:24;16.30;;;5.20;;
62863;SDS011;48954;59.950;11.014;2022-10-31T09:11:01;10.70;;;4.80;;
62863;SDS011;48954;59.950;11.014;2022-10-31T09:13:30;13.00;;;4.70;;
62863;SDS011;48954;59.950;11.014;2022-10-31T09:16:12;10.10;;;4.30;;
62863;SDS011;48954;59.950;11.014;2022-10-31T09:18:38;12.40;;;4.80;;
62863;SDS011;48954;59.950;11.014;2022-10-31T09:21:19;9.00;;;4.60;;
62863;SDS011;48954;59.950;11.014;2022-10-31T09:24:00;10.50;;;4.60;;
62863;SDS011;48954;59.950;11.014;2022-10-31T09:26:27;13.50;;;5.00;;
62863;SDS011;48954;59.950;11.014;2022-10-31T09:28:54;8.30;;;4.50;;
62863;SDS011;48954;59.950;11.014;2022-10-31T09:31:35;10.00;;;4.20;;
62863;SDS011;48954;59.950;11.014;2022-10-31T09:34:02;10.40;;;4.90;;
62863;SDS011;48954;59.950;11.014;2022-10-31T09:36:43;9.00;;;4.50;;
62863;SDS011;48954;59.950;11.014;2022-10-31T09:42:01;12.00;;;3.80;;
62863;SDS011;48954;59.950;11.014;2022-10-31T09:45:01;10.90;;;4.50;;
62863;SDS011;48954;59.950;11.014;2022-10-31T09:47:54;10.70;;;4.10;;
62863;SDS011;48954;59.950;11.014;2022-10-31T09:50:50;11.10;;;3.70;;
62863;SDS011;48954;59.950;11.014;2022-10-31T09:56:10;10.30;;;4.50;;
62863;SDS011;48954;59.950;11.014;2022-10-31T09:58:45;8.90;;;3.80;;
62863;SDS011;48954;59.950;11.014;2022-10-31T10:01:37;10.00;;;4.30;;
62863;SDS011;48954;59.950;11.014;2022-10-31T10:06:57;9.60;;;4.30;;
62863;SDS011;48954;59.950;11.014;2022-10-31T10:09:29;10.30;;;4.60;;
62863;SDS011;48954;59.950;11.014;2022-10-31T10:18:01;10.80;;;4.40;;
62863;SDS011;48954;59.950;11.014;2022-10-31T10:26:20;12.10;;;5.10;;
62863;SDS011;48954;59.950;11.014;2022-10-31T10:32:17;12.90;;;5.10;;
62863;SDS011;48954;59.950;11.014;2022-10-31T10:38:28;12.10;;;4.70;;
62863;SDS011;48954;59.950;11.014;2022-10-31T10:41:20;15.80;;;4.20;;
62863;SDS011;48954;59.950;11.014;2022-10-31T10:43:51;11.20;;;4.20;;
62863;SDS011;48954;59.950;11.014;2022-10-31T10:46:54;14.00;;;6.10;;
62863;SDS011;48954;59.950;11.014;2022-10-31T10:49:41;17.20;;;5.80;;
62863;SDS011;48954;59.950;11.014;2022-10-31T10:57:56;20.00;;;7.20;;
62863;SDS011;48954;59.950;11.014;2022-10-31T11:00:53;24.90;;;9.20;;
62863;SDS011;48954;59.950;11.014;2022-10-31T11:03:35;8.80;;;4.60;;
62863;SDS011;48954;59.950;11.014;2022-10-31T11:06:37;7.10;;;3.40;;
62863;SDS011;48954;59.950;11.014;2022-10-31T11:09:18;9.40;;;3.60;;
62863;SDS011;48954;59.950;11.014;2022-10-31T11:11:49;9.70;;;3.60;;
62863;SDS011;48954;59.950;11.014;2022-10-31T11:14:30;8.80;;;3.50;;
62863;SDS011;48954;59.950;11.014;2022-10-31T11:17:16;11.20;;;3.60;;
62863;SDS011;48954;59.950;11.014;2022-10-31T11:20:03;7.00;;;3.40;;
62863;SDS011;48954;59.950;11.014;2022-10-31T11:23:00;6.60;;;3.00;;
62863;SDS011;48954;59.950;11.014;2022-10-31T11:25:54;9.40;;;3.60;;
62863;SDS011;48954;59.950;11.014;2022-10-31T11:28:42;7.80;;;3.50;;
62863;SDS011;48954;59.950;11.014;2022-10-31T11:31:23;9.40;;;4.00;;
62863;SDS011;48954;59.950;11.014;2022-10-31T11:34:00;10.30;;;4.10;;
62863;SDS011;48954;59.950;11.014;2022-10-31T11:36:43;7.10;;;3.30;;
62863;SDS011;48954;59.950;11.014;2022-10-31T11:39:26;9.10;;;4.00;;
62863;SDS011;48954;59.950;11.014;2022-10-31T11:42:01;10.50;;;3.90;;
62863;SDS011;48954;59.950;11.014;2022-10-31T11:44:44;8.40;;;3.50;;
62863;SDS011;48954;59.950;11.014;2022-10-31T11:47:46;7.10;;;3.50;;
62863;SDS011;48954;59.950;11.014;2022-10-31T11:50:52;12.40;;;3.50;;
62863;SDS011;48954;59.950;11.014;2022-10-31T11:53:37;8.40;;;3.80;;
62863;SDS011;48954;59.950;11.014;2022-10-31T11:56:17;9.60;;;3.80;;
62863;SDS011;48954;59.950;11.014;2022-10-31T11:59:02;10.60;;;3.70;;
62863;SDS011;48954;59.950;11.014;2022-10-31T12:02:14;10.40;;;3.80;;
62863;SDS011;48954;59.950;11.014;2022-10-31T12:05:10;8.40;;;3.90;;
62863;SDS011;48954;59.950;11.014;2022-10-31T12:07:59;9.00;;;3.20;;
62863;SDS011;48954;59.950;11.014;2022-10-31T12:11:02;6.80;;;3.30;;
62863;SDS011;48954;59.950;11.014;2022-10-31T12:13:40;8.10;;;3.90;;
62863;SDS011;48954;59.950;11.014;2022-10-31T12:26:17;11.10;;;3.30;;
62863;SDS011;48954;59.950;11.014;2022-10-31T12:35:51;10.80;;;4.00;;
62863;SDS011;48954;59.950;11.014;2022-10-31T12:48:51;6.40;;;3.30;;
62863;SDS011;48954;59.950;11.014;2022-10-31T12:57:39;9.80;;;4.00;;
62863;SDS011;48954;59.950;11.014;2022-10-31T13:03:48;10.00;;;3.40;;
62863;SDS011;48954;59.950;11.014;2022-10-31T13:07:05;8.00;;;3.00;;
62863;SDS011;48954;59.950;11.014;2022-10-31T13:09:46;11.80;;;4.30;;
62863;SDS011;48954;59.950;11.014;2022-10-31T13:12:36;9.40;;;3.60;;
62863;SDS011;48954;59.950;11.014;2022-10-31T13:15:18;17.20;;;8.30;;
62863;SDS011;48954;59.950;11.014;2022-10-31T13:17:59;7.00;;;3.50;;
62863;SDS011;48954;59.950;11.014;2022-10-31T13:25:54;9.30;;;4.30;;
62863;SDS011;48954;59.950;11.014;2022-10-31T13:28:31;9.80;;;3.40;;
62863;SDS011;48954;59.950;11.014;2022-10-31T13:31:05;9.40;;;3.30;;
62863;SDS011;48954;59.950;11.014;2022-10-31T13:33:34;7.60;;;3.00;;
62863;SDS011;48954;59.950;11.014;2022-10-31T13:41:53;9.30;;;3.10;;
62863;SDS011;48954;59.950;11.014;2022-10-31T13:44:28;8.80;;;3.20;;
62863;SDS011;48954;59.950;11.014;2022-10-31T13:47:27;7.10;;;3.10;;
62863;SDS011;48954;59.950;11.014;2022-10-31T13:52:48;7.50;;;2.80;;
62863;SDS011;48954;59.950;11.014;2022-10-31T13:55:35;9.90;;;3.00;;
62863;SDS011;48954;59.950;11.014;2022-10-31T13:58:05;12.40;;;3.40;;
62863;SDS011;48954;59.950;11.014;2022-10-31T14:03:57;6.90;;;2.80;;
62863;SDS011;48954;59.950;11.014;2022-10-31T14:09:34;11.20;;;3.20;;
62863;SDS011;48954;59.950;11.014;2022-10-31T14:12:24;11.50;;;4.30;;
62863;SDS011;48954;59.950;11.014;2022-10-31T14:17:46;11.30;;;3.60;;
62863;SDS011;48954;59.950;11.014;2022-10-31T14:20:41;12.40;;;4.10;;
62863;SDS011;48954;59.950;11.014;2022-10-31T14:26:08;9.80;;;3.20;;
62863;SDS011;48954;59.950;11.014;2022-10-31T14:43:09;14.10;;;3.20;;
62863;SDS011;48954;59.950;11.014;2022-10-31T14:52:00;7.90;;;2.70;;
62863;SDS011;48954;59.950;11.014;2022-10-31T14:54:44;8.70;;;3.10;;
62863;SDS011;48954;59.950;11.014;2022-10-31T14:57:16;7.10;;;2.30;;
62863;SDS011;48954;59.950;11.014;2022-10-31T14:59:52;6.50;;;2.50;;
62863;SDS011;48954;59.950;11.014;2022-10-31T15:02:39;10.70;;;4.40;;
62863;SDS011;48954;59.950;11.014;2022-10-31T15:05:40;8.70;;;3.30;;
62863;SDS011;48954;59.950;11.014;2022-10-31T15:08:25;11.20;;;3.70;;
62863;SDS011;48954;59.950;11.014;2022-10-31T15:11:12;10.60;;;4.30;;
62863;SDS011;48954;59.950;11.014;2022-10-31T15:13:58;11.20;;;3.50;;
62863;SDS011;48954;59.950;11.014;2022-10-31T15:16:41;8.20;;;3.30;;
62863;SDS011;48954;59.950;11.014;2022-10-31T15:19:26;12.80;;;4.70;;
62863;SDS011;48954;59.950;11.014;2022-10-31T15:21:56;11.70;;;4.40;;
62863;SDS011;48954;59.950;11.014;2022-10-31T15:24:38;14.70;;;6.50;;
62863;SDS011;48954;59.950;11.014;2022-10-31T15:27:15;18.70;;;6.80;;
62863;SDS011;48954;59.950;11.014;2022-10-31T15:29:52;16.10;;;7.20;;
62863;SDS011;48954;59.950;11.014;2022-10-31T15:32:28;14.40;;;7.00;;
62863;SDS011;48954;59.950;11.014;2022-10-31T15:35:09;18.50;;;8.30;;
62863;SDS011;48954;59.950;11.014;2022-10-31T15:37:36;18.00;;;8.60;;
62863;SDS011;48954;59.950;11.014;2022-10-31T15:40:14;13.50;;;6.20;;
62863;SDS011;48954;59.950;11.014;2022-10-31T15:42:50;12.70;;;5.20;;
62863;SDS011;48954;59.950;11.014;2022-10-31T15:45:23;24.00;;;7.20;;
62863;SDS011;48954;59.950;11.014;2022-10-31T15:48:00;20.30;;;8.70;;
62863;SDS011;48954;59.950;11.014;2022-10-31T15:51:01;17.30;;;7.80;;
62863;SDS011;48954;59.950;11.014;2022-10-31T15:53:47;24.00;;;7.80;;
62863;SDS011;48954;59.950;11.014;2022-10-31T15:56:31;18.20;;;8.10;;
62863;SDS011;48954;59.950;11.014;2022-10-31T15:59:11;15.90;;;6.30;;
62863;SDS011;48954;59.950;11.014;2022-10-31T16:02:03;20.00;;;7.40;;
62863;SDS011;48954;59.950;11.014;2022-10-31T16:04:51;19.70;;;8.70;;
62863;SDS011;48954;59.950;11.014;2022-10-31T16:07:51;21.60;;;9.50;;
62863;SDS011;48954;59.950;11.014;2022-10-31T16:13:54;26.60;;;10.30;;
62863;SDS011;48954;59.950;11.014;2022-10-31T16:16:57;27.80;;;10.10;;
62863;SDS011;48954;59.950;11.014;2022-10-31T16:19:48;22.60;;;9.30;;
62863;SDS011;48954;59.950;11.014;2022-10-31T16:22:37;34.80;;;13.60;;
62863;SDS011;48954;59.950;11.014;2022-10-31T16:25:26;25.90;;;11.10;;
62863;SDS011;48954;59.950;11.014;2022-10-31T16:28:18;31.40;;;9.50;;
62863;SDS011;48954;59.950;11.014;2022-10-31T16:31:26;26.20;;;8.60;;
62863;SDS011;48954;59.950;11.014;2022-10-31T16:34:27;21.90;;;7.90;;
62863;SDS011;48954;59.950;11.014;2022-10-31T16:37:08;23.60;;;6.10;;
62863;SDS011;48954;59.950;11.014;2022-10-31T16:39:43;24.50;;;7.30;;
62863;SDS011;48954;59.950;11.014;2022-10-31T16:42:21;20.20;;;7.00;;
62863;SDS011;48954;59.950;11.014;2022-10-31T16:45:21;18.90;;;7.10;;
62863;SDS011;48954;59.950;11.014;2022-10-31T16:48:11;22.90;;;9.60;;
62863;SDS011;48954;59.950;11.014;2022-10-31T16:50:53;21.80;;;8.10;;
62863;SDS011;48954;59.950;11.014;2022-10-31T16:53:34;23.70;;;7.70;;
62863;SDS011;48954;59.950;11.014;2022-10-31T16:56:20;28.90;;;9.20;;
62863;SDS011;48954;59.950;11.014;2022-10-31T16:58:51;33.20;;;9.60;;
62863;SDS011;48954;59.950;11.014;2022-10-31T17:01:34;24.60;;;9.40;;
62863;SDS011;48954;59.950;11.014;2022-10-31T17:04:00;23.80;;;7.90;;
62863;SDS011;48954;59.950;11.014;2022-10-31T17:06:34;29.70;;;10.10;;
62863;SDS011;48954;59.950;11.014;2022-10-31T17:09:15;36.60;;;12.80;;
62863;SDS011;48954;59.950;11.014;2022-10-31T17:11:57;32.40;;;8.00;;
62863;SDS011;48954;59.950;11.014;2022-10-31T17:14:23;27.30;;;7.80;;
62863;SDS011;48954;59.950;11.014;2022-10-31T17:16:51;21.60;;;7.70;;
62863;SDS011;48954;59.950;11.014;2022-10-31T17:19:34;24.90;;;9.30;;
62863;SDS011;48954;59.950;11.014;2022-10-31T17:22:02;32.70;;;9.50;;
62863;SDS011;48954;59.950;11.014;2022-10-31T17:24:31;30.40;;;10.50;;
62863;SDS011;48954;59.950;11.014;2022-10-31T17:27:11;24.00;;;8.20;;
62863;SDS011;48954;59.950;11.014;2022-10-31T17:29:39;27.80;;;8.30;;
62863;SDS011;48954;59.950;11.014;2022-10-31T17:32:35;33.30;;;8.60;;
62863;SDS011;48954;59.950;11.014;2022-10-31T17:35:17;25.10;;;8.10;;